PWSweather.com
Personal Weather Stations
Station Observations
INORDPAS37
Bondues, BonduesFR 59910

BonduesBonduesFR 59910

Lat: 50.7, Lon: 3.09

Elevation: 102

Station Type: Netatmo

http://bondues.meteoamikuze.com

High Low Average
Temperature 49.1°F9.5°C 39.0°F3.9°C 46.6°F8.1°C
Dew Point 40.6°F4.8°C 30.6°F-0.8°C 37.6°F3.1°C
Winds 12.5 mph 20.1 kmh 1.3 mph 2.1 kmh 4.0 mph W6.4 kmh W
Wind Gusts 23.0 mph37.0 kmh -- 8.0 mph12.9 kmh
Humidity 78% 73% 76%
Pressure 30.15 in1021.0 mb 29.73 in1006.8 mb -
Precipitation 0.03 in0.8 mm - -
Hour Temp Dew Point Humidity Winds Wind Gusts Pressure Precip Precip Rate Daily Precip Total
12:02 AM 39.0°F3.9°C 30.6°F-0.8°C 77% 2.5 mph SW4.0 kmh SW 4.9 mph7.9 kmh 29.75 in1007.5 mb 0.01 in0.3 mm 0.36 in9.1 mm 0.00 in0.0 mm
12:22 AM 39.7°F4.3°C 31.3°F-0.4°C 77% 4.3 mph SW6.9 kmh SW 11.9 mph19.2 kmh 29.75 in1007.5 mb 0.01 in0.3 mm 0.00 in0.0 mm 0.00 in0.0 mm
12:42 AM 40.6°F4.8°C 32.2°F0.1°C 77% 6.9 mph SW11.1 kmh SW 13.6 mph21.9 kmh 29.75 in1007.5 mb 0.01 in0.3 mm 0.00 in0.0 mm 0.01 in0.3 mm
01:02 AM 41.2°F5.1°C 32.7°F0.4°C 77% 5.6 mph SW9.0 kmh SW 12.5 mph20.1 kmh 29.74 in1007.1 mb 0.00 in0.0 mm 0.00 in0.0 mm 0.01 in0.3 mm
01:22 AM 41.7°F5.4°C 33.3°F0.7°C 77% 4.9 mph WSW7.9 kmh WSW 9.8 mph15.8 kmh 29.74 in1007.1 mb 0.01 in0.3 mm 0.01 in0.3 mm 0.01 in0.3 mm
01:42 AM 42.6°F5.9°C 34.2°F1.2°C 77% 4.9 mph WNW7.9 kmh WNW 10.5 mph16.9 kmh 29.74 in1007.1 mb 0.01 in0.3 mm 0.01 in0.3 mm 0.02 in0.5 mm
02:03 AM 44.1°F6.7°C 35.6°F2.0°C 77% 7.4 mph NW11.9 kmh NW 15.4 mph24.8 kmh 29.74 in1007.1 mb 0.02 in0.5 mm 0.01 in0.3 mm 0.02 in0.5 mm
02:23 AM 45.1°F7.3°C 36.5°F2.5°C 77% 6.9 mph W11.1 kmh W 15.0 mph24.1 kmh 29.73 in1006.8 mb 0.01 in0.3 mm 0.00 in0.0 mm 0.02 in0.5 mm
02:43 AM 46.9°F8.3°C 38.3°F3.5°C 77% 7.4 mph W11.9 kmh W 17.4 mph28.0 kmh 29.74 in1007.1 mb 0.00 in0.0 mm 0.00 in0.0 mm 0.02 in0.5 mm
03:03 AM 48.2°F9.0°C 39.6°F4.2°C 77% 7.4 mph W11.9 kmh W 10.5 mph16.9 kmh 29.74 in1007.1 mb 0.00 in0.0 mm 0.00 in0.0 mm 0.02 in0.5 mm
03:23 AM 48.7°F9.3°C 40.1°F4.5°C 77% 9.4 mph SW15.1 kmh SW 11.2 mph18.0 kmh 29.75 in1007.5 mb 0.00 in0.0 mm 0.00 in0.0 mm 0.02 in0.5 mm
03:43 AM 48.9°F9.4°C 40.3°F4.6°C 77% 7.4 mph SSW11.9 kmh SSW 10.5 mph16.9 kmh 29.75 in1007.5 mb 0.00 in0.0 mm 0.00 in0.0 mm 0.02 in0.5 mm
04:03 AM 48.9°F9.4°C 40.3°F4.6°C 77% 5.6 mph WSW9.0 kmh WSW 9.8 mph15.8 kmh 29.75 in1007.5 mb 0.00 in0.0 mm 0.00 in0.0 mm 0.02 in0.5 mm
04:35 AM 48.9°F9.4°C 40.3°F4.6°C 77% - N N -- 29.75 in1007.5 mb 0.00 in0.0 mm 0.00 in0.0 mm 0.02 in0.5 mm
04:41 AM 48.9°F9.4°C 40.3°F4.6°C 77% - N N -- 29.75 in1007.5 mb 0.00 in0.0 mm 0.00 in0.0 mm 0.02 in0.5 mm
05:15 AM 48.9°F9.4°C 40.3°F4.6°C 77% - N N -- 29.75 in1007.5 mb 0.00 in0.0 mm 0.00 in0.0 mm 0.02 in0.5 mm
05:21 AM 48.9°F9.4°C 40.6°F4.8°C 78% - N N -- 29.76 in1007.8 mb 0.00 in0.0 mm 0.00 in0.0 mm 0.02 in0.5 mm
05:55 AM 48.9°F9.4°C 40.6°F4.8°C 78% - N N -- 29.76 in1007.8 mb 0.00 in0.0 mm 0.00 in0.0 mm 0.02 in0.5 mm
06:01 AM 48.9°F9.4°C 40.6°F4.8°C 78% - N N -- 29.75 in1007.5 mb 0.00 in0.0 mm 0.00 in0.0 mm 0.02 in0.5 mm
06:35 AM 48.9°F9.4°C 40.6°F4.8°C 78% 5.6 mph SW9.0 kmh SW 9.8 mph15.8 kmh 29.75 in1007.5 mb 0.00 in0.0 mm 0.00 in0.0 mm 0.02 in0.5 mm
06:55 AM 48.9°F9.4°C 40.6°F4.8°C 78% 5.6 mph SSW9.0 kmh SSW 10.5 mph16.9 kmh 29.75 in1007.5 mb 0.00 in0.0 mm 0.00 in0.0 mm 0.02 in0.5 mm
07:15 AM 48.9°F9.4°C 40.6°F4.8°C 78% 7.4 mph SE11.9 kmh SE 11.2 mph18.0 kmh 29.75 in1007.5 mb 0.00 in0.0 mm 0.00 in0.0 mm 0.02 in0.5 mm
07:35 AM 48.7°F9.3°C 40.5°F4.7°C 78% - N N -- 29.75 in1007.5 mb 0.00 in0.0 mm 0.00 in0.0 mm 0.02 in0.5 mm
07:55 AM 48.7°F9.3°C 40.5°F4.7°C 78% 8.1 mph WSW13.0 kmh WSW 11.9 mph19.2 kmh 29.75 in1007.5 mb 0.00 in0.0 mm 0.00 in0.0 mm 0.02 in0.5 mm
08:15 AM 48.6°F9.2°C 40.3°F4.6°C 78% 4.9 mph SW7.9 kmh SW 9.4 mph15.1 kmh 29.76 in1007.8 mb 0.00 in0.0 mm 0.01 in0.3 mm 0.03 in0.8 mm
08:35 AM 48.4°F9.1°C 40.1°F4.5°C 78% 6.9 mph W11.1 kmh W 11.9 mph19.2 kmh 29.76 in1007.8 mb 0.00 in0.0 mm 0.00 in0.0 mm 0.03 in0.8 mm
08:55 AM 48.2°F9.0°C 39.6°F4.2°C 77% 5.6 mph W9.0 kmh W 11.2 mph18.0 kmh 29.76 in1007.8 mb 0.00 in0.0 mm 0.00 in0.0 mm 0.03 in0.8 mm
09:15 AM 47.8°F8.8°C 39.2°F4.0°C 77% 8.7 mph NW14.0 kmh NW 14.3 mph23.0 kmh 29.76 in1007.8 mb 0.00 in0.0 mm 0.00 in0.0 mm 0.03 in0.8 mm
09:35 AM 47.7°F8.7°C 39.0°F3.9°C 77% 5.6 mph NW9.0 kmh NW 9.4 mph15.1 kmh 29.77 in1008.1 mb 0.00 in0.0 mm 0.00 in0.0 mm 0.03 in0.8 mm
09:46 AM 47.5°F8.6°C 38.8°F3.8°C 77% 6.9 mph W11.1 kmh W 15.0 mph24.1 kmh 29.77 in1008.1 mb 0.00 in0.0 mm 0.00 in0.0 mm 0.03 in0.8 mm
10:01 AM 47.5°F8.6°C 38.8°F3.8°C 77% 11.2 mph WSW18.0 kmh WSW 23.0 mph37.0 kmh 29.78 in1008.5 mb 0.00 in0.0 mm 0.00 in0.0 mm 0.03 in0.8 mm
10:21 AM 47.5°F8.6°C 38.8°F3.8°C 77% 9.8 mph NW15.8 kmh NW 13.0 mph20.9 kmh 29.79 in1008.8 mb 0.00 in0.0 mm 0.00 in0.0 mm 0.03 in0.8 mm
10:41 AM 47.5°F8.6°C 38.8°F3.8°C 77% 7.4 mph NW11.9 kmh NW 12.5 mph20.1 kmh 29.80 in1009.1 mb 0.00 in0.0 mm 0.00 in0.0 mm 0.03 in0.8 mm
11:08 AM 47.8°F8.8°C 39.2°F4.0°C 77% 12.5 mph SW20.1 kmh SW 21.7 mph34.9 kmh 29.80 in1009.1 mb 0.00 in0.0 mm 0.00 in0.0 mm 0.03 in0.8 mm
11:29 AM 47.8°F8.8°C 39.2°F4.0°C 77% 1.8 mph NW2.9 kmh NW 6.9 mph11.1 kmh 29.81 in1009.5 mb 0.00 in0.0 mm 0.00 in0.0 mm 0.03 in0.8 mm
11:55 AM 47.8°F8.8°C 39.2°F4.0°C 77% 1.8 mph NW2.9 kmh NW 3.8 mph6.1 kmh 29.81 in1009.5 mb 0.00 in0.0 mm 0.00 in0.0 mm 0.03 in0.8 mm
12:15 PM 47.8°F8.8°C 39.2°F4.0°C 77% 1.8 mph WNW2.9 kmh WNW 3.8 mph6.1 kmh 29.81 in1009.5 mb 0.00 in0.0 mm 0.00 in0.0 mm 0.03 in0.8 mm
12:35 PM 48.0°F8.9°C 39.4°F4.1°C 77% 1.8 mph W2.9 kmh W 4.9 mph7.9 kmh 29.82 in1009.8 mb 0.00 in0.0 mm 0.00 in0.0 mm 0.03 in0.8 mm
12:55 PM 48.2°F9.0°C 39.6°F4.2°C 77% 2.5 mph WNW4.0 kmh WNW 5.6 mph9.0 kmh 29.83 in1010.2 mb 0.00 in0.0 mm 0.00 in0.0 mm 0.03 in0.8 mm
01:15 PM 48.7°F9.3°C 40.1°F4.5°C 77% 2.5 mph NW4.0 kmh NW 6.9 mph11.1 kmh 29.83 in1010.2 mb 0.00 in0.0 mm 0.00 in0.0 mm 0.03 in0.8 mm
01:35 PM 48.9°F9.4°C 40.3°F4.6°C 77% 2.5 mph NW4.0 kmh NW 5.6 mph9.0 kmh 29.84 in1010.5 mb 0.00 in0.0 mm 0.00 in0.0 mm 0.03 in0.8 mm
01:41 PM 49.1°F9.5°C 40.5°F4.7°C 77% 2.5 mph NW4.0 kmh NW 8.1 mph13.0 kmh 29.85 in1010.8 mb 0.00 in0.0 mm 0.00 in0.0 mm 0.03 in0.8 mm
02:15 PM 49.1°F9.5°C 40.5°F4.7°C 77% 3.1 mph NW5.0 kmh NW 8.1 mph13.0 kmh 29.86 in1011.2 mb 0.00 in0.0 mm 0.00 in0.0 mm 0.03 in0.8 mm
02:21 PM 49.1°F9.5°C 40.5°F4.7°C 77% 4.3 mph WNW6.9 kmh WNW 9.8 mph15.8 kmh 29.87 in1011.5 mb 0.00 in0.0 mm 0.00 in0.0 mm 0.03 in0.8 mm
02:55 PM 49.1°F9.5°C 40.1°F4.5°C 76% 4.9 mph NW7.9 kmh NW 11.2 mph18.0 kmh 29.88 in1011.9 mb 0.00 in0.0 mm 0.00 in0.0 mm 0.03 in0.8 mm
03:01 PM 48.9°F9.4°C 39.9°F4.4°C 76% 3.1 mph NW5.0 kmh NW 5.6 mph9.0 kmh 29.90 in1012.5 mb 0.00 in0.0 mm 0.00 in0.0 mm 0.03 in0.8 mm
03:21 PM 48.7°F9.3°C 39.2°F4.0°C 75% 2.5 mph WNW4.0 kmh WNW 5.6 mph9.0 kmh 29.91 in1012.9 mb 0.00 in0.0 mm 0.00 in0.0 mm 0.03 in0.8 mm
03:41 PM 48.6°F9.2°C 39.2°F4.0°C 75% 3.1 mph WNW5.0 kmh WNW 7.4 mph11.9 kmh 29.93 in1013.5 mb 0.00 in0.0 mm 0.00 in0.0 mm 0.03 in0.8 mm
04:02 PM 48.4°F9.1°C 38.5°F3.6°C 74% 3.8 mph WNW6.1 kmh WNW 9.8 mph15.8 kmh 29.95 in1014.2 mb 0.00 in0.0 mm 0.00 in0.0 mm 0.03 in0.8 mm
04:21 PM 47.8°F8.8°C 38.1°F3.4°C 74% 1.8 mph W2.9 kmh W 5.6 mph9.0 kmh 29.96 in1014.6 mb 0.00 in0.0 mm 0.00 in0.0 mm 0.03 in0.8 mm
04:42 PM 47.3°F8.5°C 37.6°F3.1°C 74% 1.8 mph WNW2.9 kmh WNW 5.6 mph9.0 kmh 29.97 in1014.9 mb 0.00 in0.0 mm 0.00 in0.0 mm 0.03 in0.8 mm
05:02 PM 46.8°F8.2°C 37.0°F2.8°C 74% 1.8 mph WNW2.9 kmh WNW 4.9 mph7.9 kmh 29.98 in1015.2 mb 0.00 in0.0 mm 0.00 in0.0 mm 0.03 in0.8 mm
05:22 PM 46.2°F7.9°C 36.1°F2.3°C 73% 2.5 mph W4.0 kmh W 4.9 mph7.9 kmh 30.00 in1015.9 mb 0.00 in0.0 mm 0.00 in0.0 mm 0.03 in0.8 mm
05:41 PM 45.7°F7.6°C 35.6°F2.0°C 73% 2.5 mph WNW4.0 kmh WNW 6.9 mph11.1 kmh 30.01 in1016.3 mb 0.00 in0.0 mm 0.00 in0.0 mm 0.03 in0.8 mm
06:15 PM 45.1°F7.3°C 35.1°F1.7°C 73% 2.5 mph W4.0 kmh W 4.3 mph6.9 kmh 30.02 in1016.6 mb 0.00 in0.0 mm 0.00 in0.0 mm 0.03 in0.8 mm
06:21 PM 44.6°F7.0°C 34.5°F1.4°C 73% 1.8 mph W2.9 kmh W 3.8 mph6.1 kmh 30.04 in1017.3 mb 0.00 in0.0 mm 0.00 in0.0 mm 0.03 in0.8 mm
06:41 PM 44.1°F6.7°C 34.0°F1.1°C 73% 1.8 mph W2.9 kmh W 3.1 mph5.0 kmh 30.05 in1017.6 mb 0.00 in0.0 mm 0.00 in0.0 mm 0.03 in0.8 mm
07:01 PM 43.9°F6.6°C 33.8°F1.0°C 73% 1.8 mph WSW2.9 kmh WSW 3.8 mph6.1 kmh 30.06 in1017.9 mb 0.00 in0.0 mm 0.00 in0.0 mm 0.03 in0.8 mm
07:21 PM 43.5°F6.4°C 33.8°F1.0°C 74% 1.3 mph W2.1 kmh W 3.1 mph5.0 kmh 30.07 in1018.3 mb 0.00 in0.0 mm 0.00 in0.0 mm 0.03 in0.8 mm
07:43 PM 43.3°F6.3°C 33.6°F0.9°C 74% 1.3 mph W2.1 kmh W 3.1 mph5.0 kmh 30.08 in1018.6 mb 0.00 in0.0 mm 0.00 in0.0 mm 0.03 in0.8 mm
08:02 PM 43.5°F6.4°C 33.8°F1.0°C 74% 1.8 mph W2.9 kmh W 3.8 mph6.1 kmh 30.08 in1018.6 mb 0.00 in0.0 mm 0.00 in0.0 mm 0.03 in0.8 mm
08:23 PM 43.9°F6.6°C 34.2°F1.2°C 74% 1.8 mph WSW2.9 kmh WSW 4.3 mph6.9 kmh 30.09 in1019.0 mb 0.00 in0.0 mm 0.00 in0.0 mm 0.03 in0.8 mm
08:43 PM 44.1°F6.7°C 34.3°F1.3°C 74% 1.8 mph WSW2.9 kmh WSW 4.3 mph6.9 kmh 30.09 in1019.0 mb 0.00 in0.0 mm 0.00 in0.0 mm 0.03 in0.8 mm
09:03 PM 44.4°F6.9°C 34.7°F1.5°C 74% 2.5 mph WSW4.0 kmh WSW 4.3 mph6.9 kmh 30.10 in1019.3 mb 0.00 in0.0 mm 0.00 in0.0 mm 0.03 in0.8 mm
09:24 PM 44.8°F7.1°C 35.1°F1.7°C 74% 1.3 mph WSW2.1 kmh WSW 3.1 mph5.0 kmh 30.11 in1019.6 mb 0.00 in0.0 mm 0.00 in0.0 mm 0.03 in0.8 mm
09:43 PM 45.0°F7.2°C 35.2°F1.8°C 74% 1.8 mph WSW2.9 kmh WSW 3.1 mph5.0 kmh 30.11 in1019.6 mb 0.00 in0.0 mm 0.00 in0.0 mm 0.03 in0.8 mm
10:04 PM 45.0°F7.2°C 35.2°F1.8°C 74% 1.8 mph WSW2.9 kmh WSW 3.8 mph6.1 kmh 30.12 in1020.0 mb 0.00 in0.0 mm 0.00 in0.0 mm 0.03 in0.8 mm
10:24 PM 45.0°F7.2°C 35.2°F1.8°C 74% 2.5 mph SW4.0 kmh SW 4.3 mph6.9 kmh 30.13 in1020.3 mb 0.00 in0.0 mm 0.00 in0.0 mm 0.03 in0.8 mm
10:41 PM 45.1°F7.3°C 35.4°F1.9°C 74% 1.8 mph SW2.9 kmh SW 4.3 mph6.9 kmh 30.13 in1020.3 mb 0.00 in0.0 mm 0.00 in0.0 mm 0.03 in0.8 mm
11:15 PM 45.1°F7.3°C 35.4°F1.9°C 74% 2.5 mph WSW4.0 kmh WSW 4.9 mph7.9 kmh 30.14 in1020.7 mb 0.00 in0.0 mm 0.00 in0.0 mm 0.03 in0.8 mm
11:21 PM 45.3°F7.4°C 35.2°F1.8°C 73% 2.5 mph WSW4.0 kmh WSW 5.6 mph9.0 kmh 30.14 in1020.7 mb 0.00 in0.0 mm 0.00 in0.0 mm 0.03 in0.8 mm
11:55 PM 45.3°F7.4°C 35.2°F1.8°C 73% 3.1 mph WSW5.0 kmh WSW 8.7 mph14.0 kmh 30.15 in1021.0 mb 0.00 in0.0 mm 0.00 in0.0 mm 0.03 in0.8 mm